Gustavus, AK

8:29 PM AKDT on August 23, 2017 (GMT -0800)
Gustavus | | Change Station

Elev 33 ft 58.42 °N, 135.71 °W | Updated 33 minutes ago

Overcast
Overcast
56 °F
Feels Like 56 °F
N
8
Wind Variable Wind from ESE

Today
High -- | Low -- °F
--% Chance of Precip.
Yesterday
High -- | Low -- °F
Precip. -- in
Pressure 29.88 in
Visibility 10.0 miles
Clouds Overcast 6000 ft
Dew Point 50 °F
Humidity 80%
Rainfall 0.01 in
Snow Depth Not available.
5:42 AM 8:26 PM
Waxing Crescent, 7% visible
METAR PAGS 240356Z AUTO 11007KT 10SM OVC060 13/10 A2988 RMK AO2 SLP117 T01330100
Pressure 29.88 in
Visibility 10.0 miles
Clouds Overcast 6000 ft
Dew Point 50 °F
Humidity 80%
Rainfall 0.01 in
Snow Depth Not available.
5:42 AM 8:26 PM
Waxing Crescent, 7% visible
METAR PAGS 240356Z AUTO 11007KT 10SM OVC060 13/10 A2988 RMK AO2 SLP117 T01330100

Get Severe Weather Alerts

Thanks for signing up!

Be on the lookout for a verification email in your inbox.

You'll start receiving the daily forecast at 6 AM.

×

10-Day Weather Forecast

Almanac

Astronomy

Aug. 23, 2017 Rise Set
Actual Time
Civil Twilight
Nautical Twilight
Astronomical Twilight
Moon
Length of Visible Light
Length of Day
Tomorrow will be .
, % of the Moon is Illuminated

Today's Extremes

State Highs State Lows

Community

WunderPhotos

Category 6

Welcome to Category 6. This is the collective home for Weather Underground's featured writeups by Dr. Jeff Masters (right), Bob Henson (left), Chris Burt, and other regular contributors.

Nearby

Air Quality

  Air Quality AQ Index Pollutant
Not available.

Snow Depth

Station Depth Elevation

Earthquake Activity

City Distance Mag. Time & Date
Minimum magnitude displayed is 2.5.

Coastal Water Temperatures

Place Temperature

Stations

Nearby Weather Stations

Station Location Temp. Windchill Dew Point Humidity Wind Precip. Elev Updated Type
                   

Watches & Warnings

There are currently no watches in effect.